sensor_id;sensor_type;location;lat;lon;timestamp;P1;durP1;ratioP1;P2;durP2;ratioP2
38779;SDS011;29273;49.962;9.768;2023-04-24T00:00:39;1.27;;;0.65;;
38779;SDS011;29273;49.962;9.768;2023-04-24T00:03:06;1.65;;;0.80;;
38779;SDS011;29273;49.962;9.768;2023-04-24T00:05:32;0.60;;;0.60;;
38779;SDS011;29273;49.962;9.768;2023-04-24T00:07:58;1.10;;;0.80;;
38779;SDS011;29273;49.962;9.768;2023-04-24T00:10:23;0.85;;;0.68;;
38779;SDS011;29273;49.962;9.768;2023-04-24T00:12:49;1.17;;;0.65;;
38779;SDS011;29273;49.962;9.768;2023-04-24T00:15:15;1.05;;;0.70;;
38779;SDS011;29273;49.962;9.768;2023-04-24T00:17:40;0.47;;;0.47;;
38779;SDS011;29273;49.962;9.768;2023-04-24T00:20:06;1.75;;;0.77;;
38779;SDS011;29273;49.962;9.768;2023-04-24T00:22:32;1.40;;;0.50;;
38779;SDS011;29273;49.962;9.768;2023-04-24T00:24:58;0.75;;;0.50;;
38779;SDS011;29273;49.962;9.768;2023-04-24T00:27:23;0.50;;;0.50;;
38779;SDS011;29273;49.962;9.768;2023-04-24T00:29:49;1.58;;;0.70;;
38779;SDS011;29273;49.962;9.768;2023-04-24T00:32:14;0.82;;;0.60;;
38779;SDS011;29273;49.962;9.768;2023-04-24T00:34:41;1.05;;;0.50;;
38779;SDS011;29273;49.962;9.768;2023-04-24T00:37:07;0.73;;;0.57;;
38779;SDS011;29273;49.962;9.768;2023-04-24T00:39:32;1.23;;;0.60;;
38779;SDS011;29273;49.962;9.768;2023-04-24T00:41:58;0.90;;;0.60;;
38779;SDS011;29273;49.962;9.768;2023-04-24T00:44:24;0.60;;;0.45;;
38779;SDS011;29273;49.962;9.768;2023-04-24T00:46:49;2.05;;;0.50;;
38779;SDS011;29273;49.962;9.768;2023-04-24T00:49:19;1.10;;;0.60;;
38779;SDS011;29273;49.962;9.768;2023-04-24T00:51:46;0.57;;;0.50;;
38779;SDS011;29273;49.962;9.768;2023-04-24T00:54:12;0.40;;;0.40;;
38779;SDS011;29273;49.962;9.768;2023-04-24T00:56:38;0.77;;;0.50;;
38779;SDS011;29273;49.962;9.768;2023-04-24T00:59:05;1.20;;;0.60;;
38779;SDS011;29273;49.962;9.768;2023-04-24T01:01:31;1.02;;;0.60;;
38779;SDS011;29273;49.962;9.768;2023-04-24T01:03:57;0.90;;;0.55;;
38779;SDS011;29273;49.962;9.768;2023-04-24T01:06:25;1.25;;;0.50;;
38779;SDS011;29273;49.962;9.768;2023-04-24T01:08:53;0.80;;;0.50;;
38779;SDS011;29273;49.962;9.768;2023-04-24T01:11:21;1.13;;;0.40;;
38779;SDS011;29273;49.962;9.768;2023-04-24T01:13:47;0.93;;;0.50;;
38779;SDS011;29273;49.962;9.768;2023-04-24T01:16:14;0.70;;;0.50;;
38779;SDS011;29273;49.962;9.768;2023-04-24T01:18:42;0.90;;;0.50;;
38779;SDS011;29273;49.962;9.768;2023-04-24T01:21:10;0.77;;;0.40;;
38779;SDS011;29273;49.962;9.768;2023-04-24T01:23:38;0.93;;;0.47;;
38779;SDS011;29273;49.962;9.768;2023-04-24T01:26:04;1.15;;;0.70;;
38779;SDS011;29273;49.962;9.768;2023-04-24T01:28:29;0.40;;;0.30;;
38779;SDS011;29273;49.962;9.768;2023-04-24T01:30:56;1.15;;;0.40;;
38779;SDS011;29273;49.962;9.768;2023-04-24T01:33:22;0.65;;;0.50;;
38779;SDS011;29273;49.962;9.768;2023-04-24T01:35:48;1.25;;;0.50;;
38779;SDS011;29273;49.962;9.768;2023-04-24T01:38:14;0.68;;;0.50;;
38779;SDS011;29273;49.962;9.768;2023-04-24T01:40:40;0.70;;;0.50;;
38779;SDS011;29273;49.962;9.768;2023-04-24T01:43:05;0.73;;;0.50;;
38779;SDS011;29273;49.962;9.768;2023-04-24T01:45:31;1.25;;;0.50;;
38779;SDS011;29273;49.962;9.768;2023-04-24T01:47:57;1.13;;;0.60;;
38779;SDS011;29273;49.962;9.768;2023-04-24T01:50:23;0.70;;;0.60;;
38779;SDS011;29273;49.962;9.768;2023-04-24T01:52:48;1.20;;;0.50;;
38779;SDS011;29273;49.962;9.768;2023-04-24T01:55:14;0.30;;;0.30;;
38779;SDS011;29273;49.962;9.768;2023-04-24T01:57:40;0.65;;;0.50;;
38779;SDS011;29273;49.962;9.768;2023-04-24T02:00:06;0.43;;;0.35;;
38779;SDS011;29273;49.962;9.768;2023-04-24T02:02:41;0.43;;;0.43;;
38779;SDS011;29273;49.962;9.768;2023-04-24T02:05:08;0.63;;;0.50;;
38779;SDS011;29273;49.962;9.768;2023-04-24T02:07:36;1.17;;;0.60;;
38779;SDS011;29273;49.962;9.768;2023-04-24T02:10:02;0.60;;;0.43;;
38779;SDS011;29273;49.962;9.768;2023-04-24T02:12:29;0.90;;;0.50;;
38779;SDS011;29273;49.962;9.768;2023-04-24T02:14:55;1.60;;;0.52;;
38779;SDS011;29273;49.962;9.768;2023-04-24T02:17:20;0.50;;;0.50;;
38779;SDS011;29273;49.962;9.768;2023-04-24T02:19:46;0.93;;;0.43;;
38779;SDS011;29273;49.962;9.768;2023-04-24T02:22:11;0.50;;;0.50;;
38779;SDS011;29273;49.962;9.768;2023-04-24T02:24:37;0.68;;;0.50;;
38779;SDS011;29273;49.962;9.768;2023-04-24T02:27:03;0.70;;;0.52;;
38779;SDS011;29273;49.962;9.768;2023-04-24T02:29:29;0.93;;;0.40;;
38779;SDS011;29273;49.962;9.768;2023-04-24T02:31:54;0.40;;;0.38;;
38779;SDS011;29273;49.962;9.768;2023-04-24T02:34:20;0.40;;;0.32;;
38779;SDS011;29273;49.962;9.768;2023-04-24T02:36:45;0.35;;;0.35;;
38779;SDS011;29273;49.962;9.768;2023-04-24T02:39:11;0.47;;;0.40;;
38779;SDS011;29273;49.962;9.768;2023-04-24T02:41:38;0.47;;;0.47;;
38779;SDS011;29273;49.962;9.768;2023-04-24T02:44:04;0.55;;;0.50;;
38779;SDS011;29273;49.962;9.768;2023-04-24T02:46:29;0.40;;;0.30;;
38779;SDS011;29273;49.962;9.768;2023-04-24T02:48:55;1.02;;;0.50;;
38779;SDS011;29273;49.962;9.768;2023-04-24T02:51:20;0.75;;;0.47;;
38779;SDS011;29273;49.962;9.768;2023-04-24T02:53:46;0.55;;;0.40;;
38779;SDS011;29273;49.962;9.768;2023-04-24T02:56:12;0.60;;;0.50;;
38779;SDS011;29273;49.962;9.768;2023-04-24T02:58:38;0.90;;;0.50;;
38779;SDS011;29273;49.962;9.768;2023-04-24T03:01:03;0.60;;;0.40;;
38779;SDS011;29273;49.962;9.768;2023-04-24T03:03:30;0.93;;;0.40;;
38779;SDS011;29273;49.962;9.768;2023-04-24T03:05:55;0.47;;;0.40;;
38779;SDS011;29273;49.962;9.768;2023-04-24T03:08:22;0.75;;;0.50;;
38779;SDS011;29273;49.962;9.768;2023-04-24T03:10:47;0.40;;;0.40;;
38779;SDS011;29273;49.962;9.768;2023-04-24T03:13:15;1.65;;;0.40;;
38779;SDS011;29273;49.962;9.768;2023-04-24T03:15:41;0.63;;;0.50;;
38779;SDS011;29273;49.962;9.768;2023-04-24T03:18:06;0.68;;;0.38;;
38779;SDS011;29273;49.962;9.768;2023-04-24T03:20:32;0.63;;;0.40;;
38779;SDS011;29273;49.962;9.768;2023-04-24T03:22:58;1.13;;;0.50;;
38779;SDS011;29273;49.962;9.768;2023-04-24T03:25:23;1.08;;;0.40;;
38779;SDS011;29273;49.962;9.768;2023-04-24T03:27:49;1.00;;;0.50;;
38779;SDS011;29273;49.962;9.768;2023-04-24T03:30:43;0.43;;;0.43;;
38779;SDS011;29273;49.962;9.768;2023-04-24T03:33:10;0.98;;;0.50;;
38779;SDS011;29273;49.962;9.768;2023-04-24T03:35:41;0.47;;;0.40;;
38779;SDS011;29273;49.962;9.768;2023-04-24T03:38:09;0.80;;;0.50;;
38779;SDS011;29273;49.962;9.768;2023-04-24T03:40:41;1.42;;;0.50;;
38779;SDS011;29273;49.962;9.768;2023-04-24T03:43:27;1.02;;;0.60;;
38779;SDS011;29273;49.962;9.768;2023-04-24T03:45:54;0.82;;;0.50;;
38779;SDS011;29273;49.962;9.768;2023-04-24T03:48:19;0.60;;;0.60;;
38779;SDS011;29273;49.962;9.768;2023-04-24T03:50:45;0.70;;;0.47;;
38779;SDS011;29273;49.962;9.768;2023-04-24T03:53:12;0.60;;;0.40;;
38779;SDS011;29273;49.962;9.768;2023-04-24T03:55:39;0.80;;;0.50;;
38779;SDS011;29273;49.962;9.768;2023-04-24T03:58:05;0.40;;;0.40;;
38779;SDS011;29273;49.962;9.768;2023-04-24T04:00:31;0.32;;;0.32;;
38779;SDS011;29273;49.962;9.768;2023-04-24T04:03:17;0.40;;;0.40;;
38779;SDS011;29273;49.962;9.768;2023-04-24T04:05:42;0.40;;;0.40;;
38779;SDS011;29273;49.962;9.768;2023-04-24T04:08:08;0.68;;;0.40;;
38779;SDS011;29273;49.962;9.768;2023-04-24T04:10:33;1.58;;;0.60;;
38779;SDS011;29273;49.962;9.768;2023-04-24T04:12:59;0.50;;;0.40;;
38779;SDS011;29273;49.962;9.768;2023-04-24T04:15:25;0.70;;;0.50;;
38779;SDS011;29273;49.962;9.768;2023-04-24T04:17:51;0.52;;;0.50;;
38779;SDS011;29273;49.962;9.768;2023-04-24T04:20:16;0.73;;;0.50;;
38779;SDS011;29273;49.962;9.768;2023-04-24T04:22:42;0.93;;;0.50;;
38779;SDS011;29273;49.962;9.768;2023-04-24T04:25:10;0.68;;;0.50;;
38779;SDS011;29273;49.962;9.768;2023-04-24T04:27:36;0.60;;;0.50;;
38779;SDS011;29273;49.962;9.768;2023-04-24T04:30:08;0.82;;;0.57;;
38779;SDS011;29273;49.962;9.768;2023-04-24T04:32:43;0.95;;;0.40;;
38779;SDS011;29273;49.962;9.768;2023-04-24T04:35:09;0.90;;;0.50;;
38779;SDS011;29273;49.962;9.768;2023-04-24T04:37:35;0.50;;;0.40;;
38779;SDS011;29273;49.962;9.768;2023-04-24T04:40:27;0.52;;;0.40;;
38779;SDS011;29273;49.962;9.768;2023-04-24T04:42:59;0.57;;;0.43;;
38779;SDS011;29273;49.962;9.768;2023-04-24T04:45:27;0.75;;;0.60;;
38779;SDS011;29273;49.962;9.768;2023-04-24T04:48:19;2.07;;;0.50;;
38779;SDS011;29273;49.962;9.768;2023-04-24T04:50:45;0.73;;;0.52;;
38779;SDS011;29273;49.962;9.768;2023-04-24T04:53:11;0.50;;;0.45;;
38779;SDS011;29273;49.962;9.768;2023-04-24T04:55:37;2.05;;;0.40;;
38779;SDS011;29273;49.962;9.768;2023-04-24T04:58:23;0.95;;;0.43;;
38779;SDS011;29273;49.962;9.768;2023-04-24T05:00:53;1.40;;;0.57;;
38779;SDS011;29273;49.962;9.768;2023-04-24T05:03:27;0.52;;;0.40;;
38779;SDS011;29273;49.962;9.768;2023-04-24T05:06:05;0.70;;;0.43;;
38779;SDS011;29273;49.962;9.768;2023-04-24T05:08:34;0.82;;;0.43;;
38779;SDS011;29273;49.962;9.768;2023-04-24T05:11:00;0.60;;;0.50;;
38779;SDS011;29273;49.962;9.768;2023-04-24T05:13:28;0.57;;;0.55;;
38779;SDS011;29273;49.962;9.768;2023-04-24T05:15:53;0.40;;;0.40;;
38779;SDS011;29273;49.962;9.768;2023-04-24T05:18:19;0.95;;;0.50;;
38779;SDS011;29273;49.962;9.768;2023-04-24T05:20:45;0.63;;;0.57;;
38779;SDS011;29273;49.962;9.768;2023-04-24T05:23:11;0.52;;;0.50;;
38779;SDS011;29273;49.962;9.768;2023-04-24T05:25:39;0.60;;;0.50;;
38779;SDS011;29273;49.962;9.768;2023-04-24T05:28:09;0.63;;;0.47;;
38779;SDS011;29273;49.962;9.768;2023-04-24T05:30:35;1.95;;;0.70;;
38779;SDS011;29273;49.962;9.768;2023-04-24T05:33:01;0.98;;;0.68;;
38779;SDS011;29273;49.962;9.768;2023-04-24T05:35:27;0.45;;;0.45;;
38779;SDS011;29273;49.962;9.768;2023-04-24T05:37:52;0.93;;;0.50;;
38779;SDS011;29273;49.962;9.768;2023-04-24T05:40:18;0.70;;;0.60;;
38779;SDS011;29273;49.962;9.768;2023-04-24T05:42:44;0.98;;;0.60;;
38779;SDS011;29273;49.962;9.768;2023-04-24T05:45:09;0.98;;;0.60;;
38779;SDS011;29273;49.962;9.768;2023-04-24T05:47:41;0.57;;;0.57;;
38779;SDS011;29273;49.962;9.768;2023-04-24T05:50:06;0.65;;;0.50;;
38779;SDS011;29273;49.962;9.768;2023-04-24T05:52:32;0.60;;;0.50;;
38779;SDS011;29273;49.962;9.768;2023-04-24T05:55:00;0.70;;;0.60;;
38779;SDS011;29273;49.962;9.768;2023-04-24T05:57:31;0.50;;;0.50;;
38779;SDS011;29273;49.962;9.768;2023-04-24T06:00:01;0.70;;;0.57;;
38779;SDS011;29273;49.962;9.768;2023-04-24T06:02:27;0.70;;;0.63;;
38779;SDS011;29273;49.962;9.768;2023-04-24T06:04:58;0.90;;;0.80;;
38779;SDS011;29273;49.962;9.768;2023-04-24T06:07:25;1.13;;;0.60;;
38779;SDS011;29273;49.962;9.768;2023-04-24T06:09:51;0.60;;;0.60;;
38779;SDS011;29273;49.962;9.768;2023-04-24T06:12:17;1.00;;;0.70;;
38779;SDS011;29273;49.962;9.768;2023-04-24T06:15:06;1.45;;;0.75;;
38779;SDS011;29273;49.962;9.768;2023-04-24T06:17:49;0.60;;;0.60;;
38779;SDS011;29273;49.962;9.768;2023-04-24T06:20:16;0.80;;;0.77;;
38779;SDS011;29273;49.962;9.768;2023-04-24T06:22:41;1.65;;;0.63;;
38779;SDS011;29273;49.962;9.768;2023-04-24T06:25:09;1.33;;;0.80;;
38779;SDS011;29273;49.962;9.768;2023-04-24T06:27:34;1.70;;;0.90;;
38779;SDS011;29273;49.962;9.768;2023-04-24T06:30:00;0.82;;;0.73;;
38779;SDS011;29273;49.962;9.768;2023-04-24T06:32:26;0.90;;;0.70;;
38779;SDS011;29273;49.962;9.768;2023-04-24T06:34:52;0.60;;;0.60;;
38779;SDS011;29273;49.962;9.768;2023-04-24T06:37:18;0.57;;;0.57;;
38779;SDS011;29273;49.962;9.768;2023-04-24T06:39:45;1.92;;;0.90;;
38779;SDS011;29273;49.962;9.768;2023-04-24T06:42:11;0.60;;;0.60;;
38779;SDS011;29273;49.962;9.768;2023-04-24T06:44:37;0.98;;;0.73;;
38779;SDS011;29273;49.962;9.768;2023-04-24T06:47:06;1.05;;;0.60;;
38779;SDS011;29273;49.962;9.768;2023-04-24T06:49:34;0.80;;;0.60;;
38779;SDS011;29273;49.962;9.768;2023-04-24T06:52:00;0.75;;;0.60;;
38779;SDS011;29273;49.962;9.768;2023-04-24T06:54:25;1.00;;;0.90;;
38779;SDS011;29273;49.962;9.768;2023-04-24T06:56:51;0.60;;;0.60;;
38779;SDS011;29273;49.962;9.768;2023-04-24T06:59:17;1.95;;;0.90;;
38779;SDS011;29273;49.962;9.768;2023-04-24T07:01:43;1.58;;;0.80;;
38779;SDS011;29273;49.962;9.768;2023-04-24T07:04:08;0.90;;;0.90;;
38779;SDS011;29273;49.962;9.768;2023-04-24T07:06:34;1.17;;;0.80;;
38779;SDS011;29273;49.962;9.768;2023-04-24T07:09:01;0.75;;;0.63;;
38779;SDS011;29273;49.962;9.768;2023-04-24T07:11:26;2.28;;;1.30;;
38779;SDS011;29273;49.962;9.768;2023-04-24T07:13:54;1.50;;;1.23;;
38779;SDS011;29273;49.962;9.768;2023-04-24T07:16:20;1.67;;;1.10;;
38779;SDS011;29273;49.962;9.768;2023-04-24T07:18:46;1.10;;;1.00;;
38779;SDS011;29273;49.962;9.768;2023-04-24T07:21:12;1.92;;;1.15;;
38779;SDS011;29273;49.962;9.768;2023-04-24T07:23:37;1.23;;;1.08;;
38779;SDS011;29273;49.962;9.768;2023-04-24T07:26:03;1.63;;;1.20;;
38779;SDS011;29273;49.962;9.768;2023-04-24T07:28:28;1.25;;;1.15;;
38779;SDS011;29273;49.962;9.768;2023-04-24T07:30:56;1.23;;;1.13;;
38779;SDS011;29273;49.962;9.768;2023-04-24T07:33:22;1.30;;;1.17;;
38779;SDS011;29273;49.962;9.768;2023-04-24T07:35:48;1.52;;;1.38;;
38779;SDS011;29273;49.962;9.768;2023-04-24T07:38:13;1.20;;;1.10;;
38779;SDS011;29273;49.962;9.768;2023-04-24T07:40:39;1.63;;;1.20;;
38779;SDS011;29273;49.962;9.768;2023-04-24T07:43:05;1.38;;;0.93;;
38779;SDS011;29273;49.962;9.768;2023-04-24T07:45:30;1.40;;;1.23;;
38779;SDS011;29273;49.962;9.768;2023-04-24T07:47:56;0.95;;;0.90;;
38779;SDS011;29273;49.962;9.768;2023-04-24T07:50:22;1.80;;;1.42;;
38779;SDS011;29273;49.962;9.768;2023-04-24T07:52:47;1.65;;;1.20;;
38779;SDS011;29273;49.962;9.768;2023-04-24T07:55:13;1.35;;;0.93;;
38779;SDS011;29273;49.962;9.768;2023-04-24T07:57:39;1.30;;;1.20;;
38779;SDS011;29273;49.962;9.768;2023-04-24T08:00:05;1.38;;;1.23;;
38779;SDS011;29273;49.962;9.768;2023-04-24T08:02:37;2.17;;;1.42;;
38779;SDS011;29273;49.962;9.768;2023-04-24T08:05:02;1.77;;;1.15;;
38779;SDS011;29273;49.962;9.768;2023-04-24T08:07:28;1.42;;;1.20;;
38779;SDS011;29273;49.962;9.768;2023-04-24T08:09:54;1.40;;;1.30;;
38779;SDS011;29273;49.962;9.768;2023-04-24T08:12:19;2.10;;;1.40;;
38779;SDS011;29273;49.962;9.768;2023-04-24T08:14:45;1.35;;;1.17;;
38779;SDS011;29273;49.962;9.768;2023-04-24T08:17:10;2.63;;;1.00;;
38779;SDS011;29273;49.962;9.768;2023-04-24T08:19:36;1.10;;;0.90;;
38779;SDS011;29273;49.962;9.768;2023-04-24T08:22:01;1.90;;;1.40;;
38779;SDS011;29273;49.962;9.768;2023-04-24T08:24:29;1.73;;;1.10;;
38779;SDS011;29273;49.962;9.768;2023-04-24T08:26:54;1.33;;;1.23;;
38779;SDS011;29273;49.962;9.768;2023-04-24T08:29:22;1.35;;;1.10;;
38779;SDS011;29273;49.962;9.768;2023-04-24T08:31:47;1.65;;;1.40;;
38779;SDS011;29273;49.962;9.768;2023-04-24T08:34:13;1.80;;;1.23;;
38779;SDS011;29273;49.962;9.768;2023-04-24T08:36:38;3.22;;;1.50;;
38779;SDS011;29273;49.962;9.768;2023-04-24T08:39:06;1.75;;;1.30;;
38779;SDS011;29273;49.962;9.768;2023-04-24T08:41:32;1.30;;;1.20;;
38779;SDS011;29273;49.962;9.768;2023-04-24T08:43:59;1.60;;;1.40;;
38779;SDS011;29273;49.962;9.768;2023-04-24T08:46:27;2.00;;;1.40;;
38779;SDS011;29273;49.962;9.768;2023-04-24T08:48:52;1.58;;;1.40;;
38779;SDS011;29273;49.962;9.768;2023-04-24T08:51:18;1.40;;;1.30;;
38779;SDS011;29273;49.962;9.768;2023-04-24T08:53:45;1.83;;;1.33;;
38779;SDS011;29273;49.962;9.768;2023-04-24T08:56:11;1.70;;;1.38;;
38779;SDS011;29273;49.962;9.768;2023-04-24T08:58:38;2.33;;;1.40;;
38779;SDS011;29273;49.962;9.768;2023-04-24T09:01:04;1.50;;;1.38;;
38779;SDS011;29273;49.962;9.768;2023-04-24T09:03:30;1.25;;;1.10;;
38779;SDS011;29273;49.962;9.768;2023-04-24T09:05:58;1.33;;;1.23;;
38779;SDS011;29273;49.962;9.768;2023-04-24T09:08:24;1.63;;;1.20;;
38779;SDS011;29273;49.962;9.768;2023-04-24T09:10:51;2.03;;;1.23;;
38779;SDS011;29273;49.962;9.768;2023-04-24T09:13:18;1.30;;;1.20;;
38779;SDS011;29273;49.962;9.768;2023-04-24T09:15:44;1.27;;;1.10;;
38779;SDS011;29273;49.962;9.768;2023-04-24T09:18:10;1.10;;;1.00;;
38779;SDS011;29273;49.962;9.768;2023-04-24T09:20:56;1.50;;;1.13;;
38779;SDS011;29273;49.962;9.768;2023-04-24T09:23:29;1.20;;;1.10;;
38779;SDS011;29273;49.962;9.768;2023-04-24T09:25:55;1.23;;;1.00;;
38779;SDS011;29273;49.962;9.768;2023-04-24T09:28:40;1.48;;;0.90;;
38779;SDS011;29273;49.962;9.768;2023-04-24T09:31:13;0.90;;;0.90;;
38779;SDS011;29273;49.962;9.768;2023-04-24T09:36:33;0.88;;;0.80;;
38779;SDS011;29273;49.962;9.768;2023-04-24T09:39:03;1.17;;;1.08;;
38779;SDS011;29273;49.962;9.768;2023-04-24T09:41:33;1.33;;;1.00;;
38779;SDS011;29273;49.962;9.768;2023-04-24T09:46:59;1.20;;;0.95;;
38779;SDS011;29273;49.962;9.768;2023-04-24T09:49:26;2.08;;;0.85;;
38779;SDS011;29273;49.962;9.768;2023-04-24T09:52:02;1.48;;;1.08;;
38779;SDS011;29273;49.962;9.768;2023-04-24T09:54:29;1.42;;;1.17;;
38779;SDS011;29273;49.962;9.768;2023-04-24T09:56:55;1.55;;;1.13;;
38779;SDS011;29273;49.962;9.768;2023-04-24T09:59:21;0.60;;;0.60;;
38779;SDS011;29273;49.962;9.768;2023-04-24T10:01:47;1.40;;;1.00;;
38779;SDS011;29273;49.962;9.768;2023-04-24T10:04:15;1.02;;;0.93;;
38779;SDS011;29273;49.962;9.768;2023-04-24T10:06:44;0.77;;;0.77;;
38779;SDS011;29273;49.962;9.768;2023-04-24T10:09:10;0.75;;;0.75;;
38779;SDS011;29273;49.962;9.768;2023-04-24T10:11:38;1.15;;;0.90;;
38779;SDS011;29273;49.962;9.768;2023-04-24T10:14:07;1.20;;;1.10;;
38779;SDS011;29273;49.962;9.768;2023-04-24T10:16:36;1.20;;;0.93;;
38779;SDS011;29273;49.962;9.768;2023-04-24T10:19:02;1.15;;;1.05;;
38779;SDS011;29273;49.962;9.768;2023-04-24T10:21:28;1.05;;;0.90;;
38779;SDS011;29273;49.962;9.768;2023-04-24T10:23:55;0.80;;;0.70;;
38779;SDS011;29273;49.962;9.768;2023-04-24T10:26:21;1.00;;;0.90;;
38779;SDS011;29273;49.962;9.768;2023-04-24T10:28:48;1.08;;;0.98;;
38779;SDS011;29273;49.962;9.768;2023-04-24T10:31:13;1.20;;;1.10;;
38779;SDS011;29273;49.962;9.768;2023-04-24T10:33:40;1.05;;;0.93;;
38779;SDS011;29273;49.962;9.768;2023-04-24T10:36:08;1.00;;;1.00;;
38779;SDS011;29273;49.962;9.768;2023-04-24T10:38:35;1.10;;;1.00;;
38779;SDS011;29273;49.962;9.768;2023-04-24T10:41:09;1.30;;;1.20;;
38779;SDS011;29273;49.962;9.768;2023-04-24T10:43:41;1.13;;;1.00;;
38779;SDS011;29273;49.962;9.768;2023-04-24T10:46:08;1.15;;;0.90;;
38779;SDS011;29273;49.962;9.768;2023-04-24T10:48:35;1.17;;;1.08;;
38779;SDS011;29273;49.962;9.768;2023-04-24T10:51:01;2.80;;;1.00;;
38779;SDS011;29273;49.962;9.768;2023-04-24T10:53:28;1.20;;;1.10;;
38779;SDS011;29273;49.962;9.768;2023-04-24T10:58:37;1.88;;;1.15;;
38779;SDS011;29273;49.962;9.768;2023-04-24T11:01:03;1.10;;;0.88;;
38779;SDS011;29273;49.962;9.768;2023-04-24T11:03:30;1.00;;;0.90;;
38779;SDS011;29273;49.962;9.768;2023-04-24T11:06:01;1.10;;;1.00;;
38779;SDS011;29273;49.962;9.768;2023-04-24T11:08:32;0.98;;;0.90;;
38779;SDS011;29273;49.962;9.768;2023-04-24T11:11:16;1.00;;;1.00;;
38779;SDS011;29273;49.962;9.768;2023-04-24T11:18:59;1.30;;;0.80;;
38779;SDS011;29273;49.962;9.768;2023-04-24T11:21:43;0.80;;;0.80;;
38779;SDS011;29273;49.962;9.768;2023-04-24T11:26:57;0.80;;;0.80;;
38779;SDS011;29273;49.962;9.768;2023-04-24T11:35:08;1.42;;;1.23;;
38779;SDS011;29273;49.962;9.768;2023-04-24T11:37:39;1.65;;;1.00;;
38779;SDS011;29273;49.962;9.768;2023-04-24T11:40:07;1.05;;;0.70;;
38779;SDS011;29273;49.962;9.768;2023-04-24T11:42:36;1.13;;;0.80;;
38779;SDS011;29273;49.962;9.768;2023-04-24T11:45:06;0.95;;;0.88;;
38779;SDS011;29273;49.962;9.768;2023-04-24T11:47:43;1.00;;;0.90;;
38779;SDS011;29273;49.962;9.768;2023-04-24T11:50:13;1.02;;;0.75;;
38779;SDS011;29273;49.962;9.768;2023-04-24T11:52:41;1.10;;;0.90;;
38779;SDS011;29273;49.962;9.768;2023-04-24T11:57:39;0.80;;;0.80;;
38779;SDS011;29273;49.962;9.768;2023-04-24T12:00:14;1.00;;;0.90;;
38779;SDS011;29273;49.962;9.768;2023-04-24T12:02:47;0.70;;;0.70;;
38779;SDS011;29273;49.962;9.768;2023-04-24T12:05:23;0.55;;;0.55;;
38779;SDS011;29273;49.962;9.768;2023-04-24T12:07:50;1.05;;;0.70;;
38779;SDS011;29273;49.962;9.768;2023-04-24T12:10:21;0.63;;;0.63;;
38779;SDS011;29273;49.962;9.768;2023-04-24T12:12:49;0.90;;;0.63;;
38779;SDS011;29273;49.962;9.768;2023-04-24T12:15:17;0.77;;;0.68;;
38779;SDS011;29273;49.962;9.768;2023-04-24T12:17:44;0.95;;;0.68;;
38779;SDS011;29273;49.962;9.768;2023-04-24T12:20:10;0.63;;;0.63;;
38779;SDS011;29273;49.962;9.768;2023-04-24T12:22:46;1.48;;;0.95;;
38779;SDS011;29273;49.962;9.768;2023-04-24T12:25:20;0.95;;;0.85;;
38779;SDS011;29273;49.962;9.768;2023-04-24T12:27:52;0.90;;;0.60;;
38779;SDS011;29273;49.962;9.768;2023-04-24T12:30:20;0.50;;;0.50;;
38779;SDS011;29273;49.962;9.768;2023-04-24T12:32:47;1.80;;;0.70;;
38779;SDS011;29273;49.962;9.768;2023-04-24T12:35:18;1.30;;;0.60;;
38779;SDS011;29273;49.962;9.768;2023-04-24T12:40:11;0.60;;;0.60;;
38779;SDS011;29273;49.962;9.768;2023-04-24T12:45:10;0.63;;;0.50;;
38779;SDS011;29273;49.962;9.768;2023-04-24T12:47:40;1.05;;;0.60;;
38779;SDS011;29273;49.962;9.768;2023-04-24T12:50:09;1.08;;;0.50;;
38779;SDS011;29273;49.962;9.768;2023-04-24T12:52:36;0.57;;;0.57;;
38779;SDS011;29273;49.962;9.768;2023-04-24T12:55:03;0.47;;;0.47;;
38779;SDS011;29273;49.962;9.768;2023-04-24T12:57:30;0.68;;;0.50;;
38779;SDS011;29273;49.962;9.768;2023-04-24T12:59:57;0.80;;;0.80;;
38779;SDS011;29273;49.962;9.768;2023-04-24T13:02:27;0.70;;;0.70;;
38779;SDS011;29273;49.962;9.768;2023-04-24T13:04:57;1.58;;;0.95;;
38779;SDS011;29273;49.962;9.768;2023-04-24T13:07:23;1.00;;;0.90;;
38779;SDS011;29273;49.962;9.768;2023-04-24T13:09:49;1.05;;;0.70;;
38779;SDS011;29273;49.962;9.768;2023-04-24T13:12:16;0.60;;;0.60;;
38779;SDS011;29273;49.962;9.768;2023-04-24T13:14:42;1.05;;;0.98;;
38779;SDS011;29273;49.962;9.768;2023-04-24T13:17:07;0.60;;;0.60;;
38779;SDS011;29273;49.962;9.768;2023-04-24T13:19:37;1.33;;;0.93;;
38779;SDS011;29273;49.962;9.768;2023-04-24T13:22:04;0.80;;;0.80;;
38779;SDS011;29273;49.962;9.768;2023-04-24T13:24:30;0.70;;;0.70;;
38779;SDS011;29273;49.962;9.768;2023-04-24T13:26:56;1.05;;;0.80;;
38779;SDS011;29273;49.962;9.768;2023-04-24T13:29:22;1.20;;;0.90;;
38779;SDS011;29273;49.962;9.768;2023-04-24T13:31:49;0.85;;;0.80;;
38779;SDS011;29273;49.962;9.768;2023-04-24T13:34:15;1.10;;;1.00;;
38779;SDS011;29273;49.962;9.768;2023-04-24T13:36:41;0.80;;;0.80;;
38779;SDS011;29273;49.962;9.768;2023-04-24T13:39:07;2.20;;;1.20;;
38779;SDS011;29273;49.962;9.768;2023-04-24T13:41:33;1.45;;;1.35;;
38779;SDS011;29273;49.962;9.768;2023-04-24T13:43:59;1.30;;;1.20;;
38779;SDS011;29273;49.962;9.768;2023-04-24T13:46:24;1.50;;;1.35;;
38779;SDS011;29273;49.962;9.768;2023-04-24T13:48:50;2.13;;;1.50;;
38779;SDS011;29273;49.962;9.768;2023-04-24T13:51:16;1.98;;;1.48;;
38779;SDS011;29273;49.962;9.768;2023-04-24T13:53:41;1.08;;;0.98;;
38779;SDS011;29273;49.962;9.768;2023-04-24T13:56:07;1.40;;;1.30;;
38779;SDS011;29273;49.962;9.768;2023-04-24T13:58:34;1.77;;;1.33;;
38779;SDS011;29273;49.962;9.768;2023-04-24T14:01:02;2.35;;;1.20;;
38779;SDS011;29273;49.962;9.768;2023-04-24T14:03:28;1.40;;;1.30;;
38779;SDS011;29273;49.962;9.768;2023-04-24T14:05:54;2.08;;;1.30;;
38779;SDS011;29273;49.962;9.768;2023-04-24T14:08:19;1.55;;;1.30;;
38779;SDS011;29273;49.962;9.768;2023-04-24T14:10:45;1.10;;;1.00;;
38779;SDS011;29273;49.962;9.768;2023-04-24T14:13:10;1.52;;;1.40;;
38779;SDS011;29273;49.962;9.768;2023-04-24T14:15:36;1.45;;;1.13;;
38779;SDS011;29273;49.962;9.768;2023-04-24T14:18:03;1.33;;;1.17;;
38779;SDS011;29273;49.962;9.768;2023-04-24T14:20:28;1.23;;;1.10;;
38779;SDS011;29273;49.962;9.768;2023-04-24T14:22:54;1.35;;;1.25;;
38779;SDS011;29273;49.962;9.768;2023-04-24T14:25:20;1.55;;;1.30;;
38779;SDS011;29273;49.962;9.768;2023-04-24T14:27:45;1.40;;;1.25;;
38779;SDS011;29273;49.962;9.768;2023-04-24T14:30:12;1.95;;;1.50;;
38779;SDS011;29273;49.962;9.768;2023-04-24T14:32:38;1.90;;;1.70;;
38779;SDS011;29273;49.962;9.768;2023-04-24T14:35:05;2.15;;;1.70;;
38779;SDS011;29273;49.962;9.768;2023-04-24T14:37:31;1.90;;;1.75;;
38779;SDS011;29273;49.962;9.768;2023-04-24T14:39:57;1.60;;;1.30;;
38779;SDS011;29273;49.962;9.768;2023-04-24T14:42:23;1.60;;;1.50;;
38779;SDS011;29273;49.962;9.768;2023-04-24T14:44:48;1.55;;;1.33;;
38779;SDS011;29273;49.962;9.768;2023-04-24T14:47:14;1.50;;;1.40;;
38779;SDS011;29273;49.962;9.768;2023-04-24T14:49:40;1.50;;;1.40;;
38779;SDS011;29273;49.962;9.768;2023-04-24T14:52:05;2.05;;;1.40;;
38779;SDS011;29273;49.962;9.768;2023-04-24T14:54:31;1.50;;;1.30;;
38779;SDS011;29273;49.962;9.768;2023-04-24T14:56:57;1.33;;;1.23;;
38779;SDS011;29273;49.962;9.768;2023-04-24T14:59:22;2.40;;;1.42;;
38779;SDS011;29273;49.962;9.768;2023-04-24T15:01:48;1.77;;;1.50;;
38779;SDS011;29273;49.962;9.768;2023-04-24T15:04:14;2.00;;;1.70;;
38779;SDS011;29273;49.962;9.768;2023-04-24T15:06:40;1.85;;;1.60;;
38779;SDS011;29273;49.962;9.768;2023-04-24T15:09:05;1.73;;;1.35;;
38779;SDS011;29273;49.962;9.768;2023-04-24T15:11:31;1.73;;;1.60;;
38779;SDS011;29273;49.962;9.768;2023-04-24T15:13:57;1.40;;;1.30;;
38779;SDS011;29273;49.962;9.768;2023-04-24T15:16:23;2.45;;;1.58;;
38779;SDS011;29273;49.962;9.768;2023-04-24T15:18:49;1.80;;;1.42;;